LICG

Details ICAO LICG (PNL)
Name PANTELLERIA
Region Italy
Timezone Europe/Rome (UTC+2.0)
Plans Departing 42
Arriving 56
Stats Elevation 635 ft / 194 m (AMSL)
Location 36.814378° 11.966227°
Runways 2
Magnetic Variation 2.739° E
Sunrise 2018-06-25 03:55:34 UTC / 2018-06-25 05:55:34 Local
Sunset 2018-06-25 18:36:19 UTC / 2018-06-25 20:36:19 Local
Advertisement - Login to hide

Runways

ID Width Length Bearing (true) Bearing (mag) Surface Threshold Offset Overrun Length
03 98 ft / 30 m 4,044 ft / 1,233 m 27.69° 24.95° Asphalt 0 ft / 0 m 0 ft / 0 m
08 148 ft / 45 m 5,449 ft / 1,661 m 76.32° 73.58° Asphalt 0 ft / 0 m 0 ft / 0 m
21 98 ft / 30 m 4,044 ft / 1,233 m 207.69° 204.95° Asphalt 0 ft / 0 m 0 ft / 0 m
26 148 ft / 45 m 5,449 ft / 1,661 m 256.33° 253.59° Asphalt 0 ft / 0 m 0 ft / 0 m

Approach Navaids

Runway Type Ident Frequency Range Bearing (true) Bearing (mag) Slope Elevation
26 Localiser IPTL 110.90 MHz 18 nm / 33 km 256.33° 253.59° - 635 ft / 194 m (AMSL)
26 DME IPTL 110.90 MHz 18 nm / 33 km - - - 635 ft / 194 m (AMSL)

Map

Weather


0- 5 10 15 20 25 30 35+ Temperature / ° C

Clouds and Precipitation
Forecast for 2018-06-25 06:00 UTC. Updated 3 hours ago

Ground ~20,000 ft ~40,000 ft Winds

METAR

LICG 250555Z 03013KT 9999 SCT004 SCT008 22/20 Q1013

TAF

Not found

Frequencies

Tower 122.10 MHz TWR
Tower 118.45 MHz TWR
Warning: Do not use this data for real-world aviation or navigation. No guarantee of current accuracy is given.